sensor_id;sensor_type;location;lat;lon;timestamp;P1;durP1;ratioP1;P2;durP2;ratioP2
1380;SDS011;684;48.342;10.096;2024-03-23T00:53:41;8.47;;;4.60;;
1380;SDS011;684;48.342;10.096;2024-03-23T00:56:07;7.30;;;3.90;;
1380;SDS011;684;48.342;10.096;2024-03-23T00:58:33;5.73;;;3.20;;
1380;SDS011;684;48.342;10.096;2024-03-23T01:01:00;7.80;;;4.53;;
1380;SDS011;684;48.342;10.096;2024-03-23T01:03:28;7.00;;;3.87;;
1380;SDS011;684;48.342;10.096;2024-03-23T01:05:54;8.93;;;4.40;;
1380;SDS011;684;48.342;10.096;2024-03-23T01:08:21;7.40;;;4.10;;
1380;SDS011;684;48.342;10.096;2024-03-23T01:10:54;6.03;;;4.30;;
1380;SDS011;684;48.342;10.096;2024-03-23T01:13:21;8.30;;;4.70;;
1380;SDS011;684;48.342;10.096;2024-03-23T01:15:48;6.10;;;4.20;;
1380;SDS011;684;48.342;10.096;2024-03-23T01:18:15;8.97;;;4.90;;
1380;SDS011;684;48.342;10.096;2024-03-23T01:20:41;7.40;;;4.67;;
1380;SDS011;684;48.342;10.096;2024-03-23T01:23:07;7.93;;;4.80;;
1380;SDS011;684;48.342;10.096;2024-03-23T01:25:33;9.67;;;4.77;;
1380;SDS011;684;48.342;10.096;2024-03-23T01:28:01;7.90;;;4.73;;
1380;SDS011;684;48.342;10.096;2024-03-23T01:30:27;7.07;;;5.10;;
1380;SDS011;684;48.342;10.096;2024-03-23T01:32:55;8.83;;;4.47;;
1380;SDS011;684;48.342;10.096;2024-03-23T01:35:21;8.37;;;5.90;;
1380;SDS011;684;48.342;10.096;2024-03-23T01:37:48;7.27;;;5.00;;
1380;SDS011;684;48.342;10.096;2024-03-23T01:40:14;7.37;;;4.60;;
1380;SDS011;684;48.342;10.096;2024-03-23T01:42:43;8.40;;;4.83;;
1380;SDS011;684;48.342;10.096;2024-03-23T01:45:22;7.47;;;4.93;;
1380;SDS011;684;48.342;10.096;2024-03-23T01:47:49;8.50;;;5.47;;
1380;SDS011;684;48.342;10.096;2024-03-23T01:50:15;8.77;;;4.67;;
1380;SDS011;684;48.342;10.096;2024-03-23T01:52:43;8.43;;;5.57;;
1380;SDS011;684;48.342;10.096;2024-03-23T01:55:09;7.47;;;5.70;;
1380;SDS011;684;48.342;10.096;2024-03-23T01:57:36;6.90;;;4.90;;
1380;SDS011;684;48.342;10.096;2024-03-23T02:00:02;10.07;;;5.00;;
1380;SDS011;684;48.342;10.096;2024-03-23T02:02:32;7.10;;;4.83;;
1380;SDS011;684;48.342;10.096;2024-03-23T02:04:58;9.40;;;4.80;;
1380;SDS011;684;48.342;10.096;2024-03-23T02:07:25;8.37;;;4.97;;
1380;SDS011;684;48.342;10.096;2024-03-23T02:09:51;7.40;;;4.60;;
1380;SDS011;684;48.342;10.096;2024-03-23T02:12:18;8.30;;;4.93;;
1380;SDS011;684;48.342;10.096;2024-03-23T02:14:45;7.03;;;4.47;;
1380;SDS011;684;48.342;10.096;2024-03-23T02:17:11;6.87;;;4.60;;
1380;SDS011;684;48.342;10.096;2024-03-23T02:19:39;8.23;;;4.80;;
1380;SDS011;684;48.342;10.096;2024-03-23T02:22:06;9.37;;;4.80;;
1380;SDS011;684;48.342;10.096;2024-03-23T02:24:33;7.10;;;4.70;;
1380;SDS011;684;48.342;10.096;2024-03-23T02:27:00;8.10;;;5.13;;
1380;SDS011;684;48.342;10.096;2024-03-23T02:29:27;8.37;;;4.60;;
1380;SDS011;684;48.342;10.096;2024-03-23T02:31:54;8.30;;;4.57;;
1380;SDS011;684;48.342;10.096;2024-03-23T02:34:19;6.70;;;4.20;;
1380;SDS011;684;48.342;10.096;2024-03-23T02:36:46;8.43;;;5.60;;
1380;SDS011;684;48.342;10.096;2024-03-23T02:39:12;8.40;;;5.47;;
1380;SDS011;684;48.342;10.096;2024-03-23T02:41:40;8.10;;;5.10;;
1380;SDS011;684;48.342;10.096;2024-03-23T02:44:06;7.30;;;4.97;;
1380;SDS011;684;48.342;10.096;2024-03-23T02:46:36;7.40;;;4.80;;
1380;SDS011;684;48.342;10.096;2024-03-23T02:49:02;7.00;;;4.80;;
1380;SDS011;684;48.342;10.096;2024-03-23T02:51:29;8.67;;;5.40;;
1380;SDS011;684;48.342;10.096;2024-03-23T02:53:55;8.00;;;5.47;;
1380;SDS011;684;48.342;10.096;2024-03-23T02:56:22;7.77;;;5.17;;
1380;SDS011;684;48.342;10.096;2024-03-23T02:58:49;8.53;;;5.70;;
1380;SDS011;684;48.342;10.096;2024-03-23T03:01:16;7.00;;;4.87;;
1380;SDS011;684;48.342;10.096;2024-03-23T03:03:42;7.23;;;4.80;;
1380;SDS011;684;48.342;10.096;2024-03-23T03:06:09;8.13;;;5.20;;
1380;SDS011;684;48.342;10.096;2024-03-23T03:08:35;8.27;;;5.63;;
1380;SDS011;684;48.342;10.096;2024-03-23T03:11:02;12.23;;;5.70;;
1380;SDS011;684;48.342;10.096;2024-03-23T03:13:28;7.70;;;5.00;;
1380;SDS011;684;48.342;10.096;2024-03-23T03:15:56;9.27;;;5.60;;
1380;SDS011;684;48.342;10.096;2024-03-23T03:18:23;8.20;;;4.50;;
1380;SDS011;684;48.342;10.096;2024-03-23T03:20:50;11.67;;;5.20;;
1380;SDS011;684;48.342;10.096;2024-03-23T03:23:19;7.37;;;4.80;;
1380;SDS011;684;48.342;10.096;2024-03-23T03:25:46;8.53;;;5.33;;
1380;SDS011;684;48.342;10.096;2024-03-23T03:28:12;7.50;;;4.50;;
1380;SDS011;684;48.342;10.096;2024-03-23T03:30:38;9.80;;;5.10;;
1380;SDS011;684;48.342;10.096;2024-03-23T03:33:06;13.33;;;5.20;;
1380;SDS011;684;48.342;10.096;2024-03-23T03:35:32;8.37;;;5.40;;
1380;SDS011;684;48.342;10.096;2024-03-23T03:37:58;9.40;;;6.80;;
1380;SDS011;684;48.342;10.096;2024-03-23T03:40:25;11.30;;;4.73;;
1380;SDS011;684;48.342;10.096;2024-03-23T03:42:51;8.30;;;5.20;;
1380;SDS011;684;48.342;10.096;2024-03-23T03:45:17;7.97;;;5.40;;
1380;SDS011;684;48.342;10.096;2024-03-23T03:47:43;8.60;;;6.30;;
1380;SDS011;684;48.342;10.096;2024-03-23T03:50:11;8.83;;;5.17;;
1380;SDS011;684;48.342;10.096;2024-03-23T03:52:37;8.87;;;5.63;;
1380;SDS011;684;48.342;10.096;2024-03-23T03:55:06;7.60;;;4.70;;
1380;SDS011;684;48.342;10.096;2024-03-23T03:57:38;7.90;;;4.90;;
1380;SDS011;684;48.342;10.096;2024-03-23T04:00:06;7.83;;;5.20;;
1380;SDS011;684;48.342;10.096;2024-03-23T04:02:36;8.93;;;4.80;;
1380;SDS011;684;48.342;10.096;2024-03-23T04:05:03;7.60;;;4.77;;
1380;SDS011;684;48.342;10.096;2024-03-23T04:07:30;7.57;;;5.60;;
1380;SDS011;684;48.342;10.096;2024-03-23T04:09:57;9.00;;;4.80;;
1380;SDS011;684;48.342;10.096;2024-03-23T04:12:23;8.43;;;5.30;;
1380;SDS011;684;48.342;10.096;2024-03-23T04:14:50;9.77;;;5.47;;
1380;SDS011;684;48.342;10.096;2024-03-23T04:17:15;6.97;;;4.83;;
1380;SDS011;684;48.342;10.096;2024-03-23T04:19:43;9.20;;;5.57;;
1380;SDS011;684;48.342;10.096;2024-03-23T04:22:09;7.57;;;4.97;;
1380;SDS011;684;48.342;10.096;2024-03-23T04:24:38;8.13;;;4.77;;
1380;SDS011;684;48.342;10.096;2024-03-23T04:27:03;8.10;;;4.87;;
1380;SDS011;684;48.342;10.096;2024-03-23T04:29:30;7.77;;;4.37;;
1380;SDS011;684;48.342;10.096;2024-03-23T04:31:56;7.20;;;5.13;;
1380;SDS011;684;48.342;10.096;2024-03-23T04:34:23;10.57;;;4.73;;
1380;SDS011;684;48.342;10.096;2024-03-23T04:36:49;9.10;;;4.93;;
1380;SDS011;684;48.342;10.096;2024-03-23T04:39:16;9.87;;;4.40;;
1380;SDS011;684;48.342;10.096;2024-03-23T04:41:46;8.63;;;5.03;;
1380;SDS011;684;48.342;10.096;2024-03-23T04:44:12;9.17;;;4.47;;
1380;SDS011;684;48.342;10.096;2024-03-23T04:46:39;8.17;;;5.53;;
1380;SDS011;684;48.342;10.096;2024-03-23T04:49:06;9.83;;;5.00;;
1380;SDS011;684;48.342;10.096;2024-03-23T04:51:35;7.10;;;4.57;;
1380;SDS011;684;48.342;10.096;2024-03-23T04:54:02;7.43;;;4.70;;
1380;SDS011;684;48.342;10.096;2024-03-23T04:56:30;7.83;;;4.50;;
1380;SDS011;684;48.342;10.096;2024-03-23T04:58:59;8.40;;;4.97;;
1380;SDS011;684;48.342;10.096;2024-03-23T05:01:26;7.03;;;4.53;;
1380;SDS011;684;48.342;10.096;2024-03-23T05:03:53;7.90;;;4.70;;
1380;SDS011;684;48.342;10.096;2024-03-23T05:06:19;9.13;;;5.03;;
1380;SDS011;684;48.342;10.096;2024-03-23T05:08:46;7.60;;;4.60;;
1380;SDS011;684;48.342;10.096;2024-03-23T05:11:12;7.53;;;5.00;;
1380;SDS011;684;48.342;10.096;2024-03-23T05:13:39;7.37;;;4.57;;
1380;SDS011;684;48.342;10.096;2024-03-23T05:16:06;7.63;;;3.93;;
1380;SDS011;684;48.342;10.096;2024-03-23T05:18:33;7.17;;;5.13;;
1380;SDS011;684;48.342;10.096;2024-03-23T05:20:59;10.47;;;5.20;;
1380;SDS011;684;48.342;10.096;2024-03-23T05:23:27;6.93;;;4.00;;
1380;SDS011;684;48.342;10.096;2024-03-23T05:25:54;9.67;;;4.73;;
1380;SDS011;684;48.342;10.096;2024-03-23T05:28:21;7.53;;;4.00;;
1380;SDS011;684;48.342;10.096;2024-03-23T05:30:49;7.00;;;4.40;;
1380;SDS011;684;48.342;10.096;2024-03-23T05:33:19;8.23;;;3.80;;
1380;SDS011;684;48.342;10.096;2024-03-23T05:35:45;5.97;;;3.77;;
1380;SDS011;684;48.342;10.096;2024-03-23T05:38:12;6.47;;;4.17;;
1380;SDS011;684;48.342;10.096;2024-03-23T05:40:38;7.50;;;3.90;;
1380;SDS011;684;48.342;10.096;2024-03-23T05:43:05;6.97;;;3.53;;
1380;SDS011;684;48.342;10.096;2024-03-23T05:45:34;7.33;;;3.70;;
1380;SDS011;684;48.342;10.096;2024-03-23T05:48:01;5.90;;;3.10;;
1380;SDS011;684;48.342;10.096;2024-03-23T05:50:28;7.87;;;3.60;;
1380;SDS011;684;48.342;10.096;2024-03-23T05:52:55;5.93;;;4.43;;
1380;SDS011;684;48.342;10.096;2024-03-23T05:55:21;7.37;;;3.43;;
1380;SDS011;684;48.342;10.096;2024-03-23T05:57:47;6.93;;;3.10;;
1380;SDS011;684;48.342;10.096;2024-03-23T06:00:13;7.30;;;3.67;;
1380;SDS011;684;48.342;10.096;2024-03-23T06:02:42;5.53;;;3.27;;
1380;SDS011;684;48.342;10.096;2024-03-23T06:05:09;7.27;;;4.10;;
1380;SDS011;684;48.342;10.096;2024-03-23T06:07:38;6.83;;;3.57;;
1380;SDS011;684;48.342;10.096;2024-03-23T06:10:04;5.90;;;3.37;;
1380;SDS011;684;48.342;10.096;2024-03-23T06:12:32;8.10;;;3.93;;
1380;SDS011;684;48.342;10.096;2024-03-23T06:14:57;7.20;;;4.40;;
1380;SDS011;684;48.342;10.096;2024-03-23T06:17:24;7.00;;;4.23;;
1380;SDS011;684;48.342;10.096;2024-03-23T06:19:50;10.00;;;4.40;;
1380;SDS011;684;48.342;10.096;2024-03-23T06:24:50;6.90;;;4.20;;
1380;SDS011;684;48.342;10.096;2024-03-23T06:27:16;7.90;;;3.70;;
1380;SDS011;684;48.342;10.096;2024-03-23T06:29:42;7.07;;;4.13;;
1380;SDS011;684;48.342;10.096;2024-03-23T06:32:09;6.70;;;3.67;;
1380;SDS011;684;48.342;10.096;2024-03-23T06:34:35;6.10;;;3.70;;
1380;SDS011;684;48.342;10.096;2024-03-23T06:37:01;5.43;;;3.40;;
1380;SDS011;684;48.342;10.096;2024-03-23T06:39:28;9.00;;;4.57;;
1380;SDS011;684;48.342;10.096;2024-03-23T06:41:56;6.70;;;3.80;;
1380;SDS011;684;48.342;10.096;2024-03-23T06:44:22;15.53;;;6.07;;
1380;SDS011;684;48.342;10.096;2024-03-23T06:46:49;9.10;;;3.40;;
1380;SDS011;684;48.342;10.096;2024-03-23T06:49:15;6.43;;;3.17;;
1380;SDS011;684;48.342;10.096;2024-03-23T06:51:42;4.77;;;2.63;;
1380;SDS011;684;48.342;10.096;2024-03-23T06:54:08;7.10;;;2.77;;
1380;SDS011;684;48.342;10.096;2024-03-23T06:56:34;5.57;;;2.10;;
1380;SDS011;684;48.342;10.096;2024-03-23T06:59:02;5.00;;;1.70;;
1380;SDS011;684;48.342;10.096;2024-03-23T07:01:28;5.70;;;2.13;;
1380;SDS011;684;48.342;10.096;2024-03-23T07:03:54;4.40;;;1.73;;
1380;SDS011;684;48.342;10.096;2024-03-23T07:06:21;4.90;;;2.17;;
1380;SDS011;684;48.342;10.096;2024-03-23T07:08:47;4.40;;;1.33;;
1380;SDS011;684;48.342;10.096;2024-03-23T07:11:18;4.20;;;1.37;;
1380;SDS011;684;48.342;10.096;2024-03-23T07:13:44;4.20;;;1.83;;
1380;SDS011;684;48.342;10.096;2024-03-23T07:16:13;4.47;;;1.63;;
1380;SDS011;684;48.342;10.096;2024-03-23T07:18:38;4.40;;;1.93;;
1380;SDS011;684;48.342;10.096;2024-03-23T07:21:05;4.93;;;1.90;;
1380;SDS011;684;48.342;10.096;2024-03-23T07:23:32;4.83;;;1.90;;
1380;SDS011;684;48.342;10.096;2024-03-23T07:25:59;4.20;;;1.70;;
1380;SDS011;684;48.342;10.096;2024-03-23T07:28:26;4.13;;;1.60;;
1380;SDS011;684;48.342;10.096;2024-03-23T07:31:01;4.40;;;1.70;;
1380;SDS011;684;48.342;10.096;2024-03-23T07:33:29;4.30;;;1.90;;
1380;SDS011;684;48.342;10.096;2024-03-23T07:35:56;5.20;;;2.17;;
1380;SDS011;684;48.342;10.096;2024-03-23T07:38:21;4.23;;;1.57;;
1380;SDS011;684;48.342;10.096;2024-03-23T07:40:49;4.37;;;1.93;;
1380;SDS011;684;48.342;10.096;2024-03-23T07:43:20;5.40;;;1.93;;
1380;SDS011;684;48.342;10.096;2024-03-23T07:45:50;4.13;;;1.80;;
1380;SDS011;684;48.342;10.096;2024-03-23T07:48:18;4.77;;;2.20;;
1380;SDS011;684;48.342;10.096;2024-03-23T07:50:45;4.90;;;2.17;;
1380;SDS011;684;48.342;10.096;2024-03-23T07:53:12;6.07;;;2.13;;
1380;SDS011;684;48.342;10.096;2024-03-23T07:55:38;4.10;;;1.80;;
1380;SDS011;684;48.342;10.096;2024-03-23T07:58:04;4.80;;;2.37;;
1380;SDS011;684;48.342;10.096;2024-03-23T08:00:31;5.00;;;2.37;;
1380;SDS011;684;48.342;10.096;2024-03-23T08:02:57;4.40;;;2.00;;
1380;SDS011;684;48.342;10.096;2024-03-23T08:05:25;4.73;;;1.47;;
1380;SDS011;684;48.342;10.096;2024-03-23T08:07:53;4.37;;;1.80;;
1380;SDS011;684;48.342;10.096;2024-03-23T08:10:19;4.50;;;2.00;;
1380;SDS011;684;48.342;10.096;2024-03-23T08:12:46;4.70;;;2.13;;
1380;SDS011;684;48.342;10.096;2024-03-23T08:15:12;4.20;;;1.57;;
1380;SDS011;684;48.342;10.096;2024-03-23T08:17:39;4.77;;;1.60;;
1380;SDS011;684;48.342;10.096;2024-03-23T08:20:05;5.73;;;1.40;;
1380;SDS011;684;48.342;10.096;2024-03-23T08:22:33;4.00;;;1.33;;
1380;SDS011;684;48.342;10.096;2024-03-23T08:25:00;4.87;;;1.60;;
1380;SDS011;684;48.342;10.096;2024-03-23T08:27:27;3.93;;;1.30;;
1380;SDS011;684;48.342;10.096;2024-03-23T08:29:53;4.90;;;1.00;;
1380;SDS011;684;48.342;10.096;2024-03-23T08:32:20;4.13;;;1.10;;
1380;SDS011;684;48.342;10.096;2024-03-23T08:34:46;3.10;;;0.70;;
1380;SDS011;684;48.342;10.096;2024-03-23T08:37:12;3.67;;;1.00;;
1380;SDS011;684;48.342;10.096;2024-03-23T08:39:38;2.90;;;0.50;;
1380;SDS011;684;48.342;10.096;2024-03-23T08:42:06;3.40;;;0.80;;
1380;SDS011;684;48.342;10.096;2024-03-23T08:44:33;3.60;;;0.70;;
1380;SDS011;684;48.342;10.096;2024-03-23T08:47:00;3.00;;;0.40;;
1380;SDS011;684;48.342;10.096;2024-03-23T08:49:26;2.90;;;0.50;;
1380;SDS011;684;48.342;10.096;2024-03-23T08:51:53;2.93;;;0.40;;
1380;SDS011;684;48.342;10.096;2024-03-23T08:54:19;3.00;;;0.57;;
1380;SDS011;684;48.342;10.096;2024-03-23T08:56:47;3.10;;;0.60;;
1380;SDS011;684;48.342;10.096;2024-03-23T08:59:14;3.53;;;0.50;;
1380;SDS011;684;48.342;10.096;2024-03-23T09:01:41;2.80;;;0.40;;
1380;SDS011;684;48.342;10.096;2024-03-23T09:04:07;3.43;;;0.50;;
1380;SDS011;684;48.342;10.096;2024-03-23T09:06:34;3.00;;;0.40;;
1380;SDS011;684;48.342;10.096;2024-03-23T09:08:59;3.00;;;0.47;;
1380;SDS011;684;48.342;10.096;2024-03-23T09:11:27;3.00;;;0.53;;
1380;SDS011;684;48.342;10.096;2024-03-23T09:13:53;2.83;;;0.40;;
1380;SDS011;684;48.342;10.096;2024-03-23T09:16:21;3.57;;;0.90;;
1380;SDS011;684;48.342;10.096;2024-03-23T09:18:47;2.90;;;0.40;;
1380;SDS011;684;48.342;10.096;2024-03-23T09:21:13;3.13;;;0.40;;
1380;SDS011;684;48.342;10.096;2024-03-23T09:23:40;4.23;;;0.67;;
1380;SDS011;684;48.342;10.096;2024-03-23T09:26:09;4.33;;;0.80;;
1380;SDS011;684;48.342;10.096;2024-03-23T09:28:34;3.60;;;0.80;;
1380;SDS011;684;48.342;10.096;2024-03-23T09:31:02;3.57;;;0.90;;
1380;SDS011;684;48.342;10.096;2024-03-23T09:33:29;7.60;;;5.57;;
1380;SDS011;684;48.342;10.096;2024-03-23T09:35:56;3.50;;;0.83;;
1380;SDS011;684;48.342;10.096;2024-03-23T09:38:22;3.37;;;0.80;;
1380;SDS011;684;48.342;10.096;2024-03-23T09:40:50;3.70;;;1.10;;
1380;SDS011;684;48.342;10.096;2024-03-23T09:43:18;4.83;;;0.90;;
1380;SDS011;684;48.342;10.096;2024-03-23T09:45:45;4.30;;;0.97;;
1380;SDS011;684;48.342;10.096;2024-03-23T09:48:11;5.83;;;0.93;;
1380;SDS011;684;48.342;10.096;2024-03-23T09:50:41;6.63;;;1.10;;
1380;SDS011;684;48.342;10.096;2024-03-23T09:53:07;5.80;;;1.30;;
1380;SDS011;684;48.342;10.096;2024-03-23T09:55:36;4.23;;;1.00;;
1380;SDS011;684;48.342;10.096;2024-03-23T09:58:02;3.90;;;1.30;;
1380;SDS011;684;48.342;10.096;2024-03-23T10:00:30;4.10;;;0.93;;
1380;SDS011;684;48.342;10.096;2024-03-23T10:02:56;4.47;;;1.20;;
1380;SDS011;684;48.342;10.096;2024-03-23T10:05:27;4.70;;;1.37;;
1380;SDS011;684;48.342;10.096;2024-03-23T10:07:54;4.50;;;1.17;;
1380;SDS011;684;48.342;10.096;2024-03-23T10:10:21;6.60;;;1.53;;
1380;SDS011;684;48.342;10.096;2024-03-23T10:12:47;4.10;;;1.27;;
1380;SDS011;684;48.342;10.096;2024-03-23T10:15:20;3.93;;;1.20;;
1380;SDS011;684;48.342;10.096;2024-03-23T10:17:47;4.37;;;1.50;;
1380;SDS011;684;48.342;10.096;2024-03-23T10:20:15;7.20;;;1.77;;
1380;SDS011;684;48.342;10.096;2024-03-23T10:22:44;4.87;;;1.50;;
1380;SDS011;684;48.342;10.096;2024-03-23T10:25:13;5.90;;;1.80;;
1380;SDS011;684;48.342;10.096;2024-03-23T10:27:39;6.23;;;1.63;;
1380;SDS011;684;48.342;10.096;2024-03-23T10:30:08;4.77;;;1.40;;
1380;SDS011;684;48.342;10.096;2024-03-23T10:32:35;4.97;;;1.20;;
1380;SDS011;684;48.342;10.096;2024-03-23T10:35:13;5.30;;;1.53;;
1380;SDS011;684;48.342;10.096;2024-03-23T10:37:40;5.43;;;1.77;;
1380;SDS011;684;48.342;10.096;2024-03-23T10:40:07;9.90;;;1.97;;
1380;SDS011;684;48.342;10.096;2024-03-23T10:42:37;5.00;;;1.67;;
1380;SDS011;684;48.342;10.096;2024-03-23T10:45:05;6.57;;;1.60;;
1380;SDS011;684;48.342;10.096;2024-03-23T10:47:35;4.77;;;1.50;;
1380;SDS011;684;48.342;10.096;2024-03-23T10:50:03;6.13;;;2.00;;
1380;SDS011;684;48.342;10.096;2024-03-23T10:52:30;5.40;;;1.80;;
1380;SDS011;684;48.342;10.096;2024-03-23T10:54:57;9.80;;;3.33;;
1380;SDS011;684;48.342;10.096;2024-03-23T10:57:26;6.97;;;2.50;;
1380;SDS011;684;48.342;10.096;2024-03-23T10:59:59;5.03;;;2.20;;
1380;SDS011;684;48.342;10.096;2024-03-23T11:02:27;4.73;;;1.90;;
1380;SDS011;684;48.342;10.096;2024-03-23T11:04:54;7.60;;;2.57;;
1380;SDS011;684;48.342;10.096;2024-03-23T11:07:28;6.80;;;2.67;;
1380;SDS011;684;48.342;10.096;2024-03-23T11:09:56;6.57;;;2.80;;
1380;SDS011;684;48.342;10.096;2024-03-23T11:12:26;5.97;;;2.70;;
1380;SDS011;684;48.342;10.096;2024-03-23T11:15:01;7.43;;;2.87;;
1380;SDS011;684;48.342;10.096;2024-03-23T11:17:29;7.20;;;2.60;;
1380;SDS011;684;48.342;10.096;2024-03-23T11:19:56;7.43;;;2.93;;
1380;SDS011;684;48.342;10.096;2024-03-23T11:22:39;7.77;;;2.60;;
1380;SDS011;684;48.342;10.096;2024-03-23T11:25:17;8.40;;;2.93;;
1380;SDS011;684;48.342;10.096;2024-03-23T11:27:45;7.30;;;2.87;;
1380;SDS011;684;48.342;10.096;2024-03-23T11:30:15;8.30;;;3.10;;
1380;SDS011;684;48.342;10.096;2024-03-23T11:32:42;11.47;;;3.23;;
1380;SDS011;684;48.342;10.096;2024-03-23T11:35:09;7.60;;;3.53;;
1380;SDS011;684;48.342;10.096;2024-03-23T11:37:36;8.13;;;3.20;;
1380;SDS011;684;48.342;10.096;2024-03-23T11:40:19;6.83;;;2.83;;
1380;SDS011;684;48.342;10.096;2024-03-23T11:42:45;6.70;;;2.90;;
1380;SDS011;684;48.342;10.096;2024-03-23T11:45:13;7.40;;;2.70;;
1380;SDS011;684;48.342;10.096;2024-03-23T11:47:43;5.70;;;2.70;;
1380;SDS011;684;48.342;10.096;2024-03-23T11:50:10;8.80;;;2.30;;
1380;SDS011;684;48.342;10.096;2024-03-23T11:52:44;6.50;;;2.93;;
1380;SDS011;684;48.342;10.096;2024-03-23T11:55:11;9.20;;;4.50;;
1380;SDS011;684;48.342;10.096;2024-03-23T11:57:37;6.60;;;2.27;;
1380;SDS011;684;48.342;10.096;2024-03-23T12:02:49;5.37;;;2.73;;
1380;SDS011;684;48.342;10.096;2024-03-23T12:05:17;9.40;;;3.20;;
1380;SDS011;684;48.342;10.096;2024-03-23T12:07:43;7.47;;;2.70;;
1380;SDS011;684;48.342;10.096;2024-03-23T12:10:09;7.77;;;4.00;;
1380;SDS011;684;48.342;10.096;2024-03-23T12:12:35;5.10;;;1.50;;
1380;SDS011;684;48.342;10.096;2024-03-23T12:15:02;6.77;;;1.50;;
1380;SDS011;684;48.342;10.096;2024-03-23T12:17:31;7.17;;;1.60;;
1380;SDS011;684;48.342;10.096;2024-03-23T12:19:59;5.97;;;1.47;;
1380;SDS011;684;48.342;10.096;2024-03-23T12:22:25;7.07;;;1.60;;
1380;SDS011;684;48.342;10.096;2024-03-23T12:24:54;6.20;;;1.70;;
1380;SDS011;684;48.342;10.096;2024-03-23T12:27:20;6.23;;;1.33;;
1380;SDS011;684;48.342;10.096;2024-03-23T12:29:47;7.00;;;1.67;;
1380;SDS011;684;48.342;10.096;2024-03-23T12:32:13;6.67;;;1.77;;
1380;SDS011;684;48.342;10.096;2024-03-23T12:34:42;6.10;;;1.83;;
1380;SDS011;684;48.342;10.096;2024-03-23T12:37:08;7.97;;;1.30;;
1380;SDS011;684;48.342;10.096;2024-03-23T12:39:36;6.27;;;1.67;;
1380;SDS011;684;48.342;10.096;2024-03-23T12:42:02;5.80;;;2.07;;
1380;SDS011;684;48.342;10.096;2024-03-23T12:44:29;8.67;;;1.83;;
1380;SDS011;684;48.342;10.096;2024-03-23T12:46:55;7.00;;;1.60;;
1380;SDS011;684;48.342;10.096;2024-03-23T12:49:21;6.53;;;1.63;;
1380;SDS011;684;48.342;10.096;2024-03-23T12:51:53;6.30;;;1.93;;
1380;SDS011;684;48.342;10.096;2024-03-23T12:54:21;4.67;;;1.60;;
1380;SDS011;684;48.342;10.096;2024-03-23T12:56:47;5.40;;;1.50;;
1380;SDS011;684;48.342;10.096;2024-03-23T12:59:14;4.50;;;1.60;;
1380;SDS011;684;48.342;10.096;2024-03-23T13:01:41;5.73;;;1.30;;
1380;SDS011;684;48.342;10.096;2024-03-23T13:04:08;5.80;;;1.70;;
1380;SDS011;684;48.342;10.096;2024-03-23T13:06:34;6.33;;;2.13;;
1380;SDS011;684;48.342;10.096;2024-03-23T13:09:02;7.70;;;1.50;;
1380;SDS011;684;48.342;10.096;2024-03-23T13:11:29;4.23;;;1.20;;
1380;SDS011;684;48.342;10.096;2024-03-23T13:13:56;4.73;;;1.50;;
1380;SDS011;684;48.342;10.096;2024-03-23T13:16:21;7.00;;;1.77;;
1380;SDS011;684;48.342;10.096;2024-03-23T13:18:48;7.43;;;2.10;;
1380;SDS011;684;48.342;10.096;2024-03-23T13:21:14;6.10;;;1.60;;
1380;SDS011;684;48.342;10.096;2024-03-23T13:23:41;5.57;;;1.73;;
1380;SDS011;684;48.342;10.096;2024-03-23T13:26:10;6.63;;;2.40;;
1380;SDS011;684;48.342;10.096;2024-03-23T13:28:36;7.17;;;2.20;;
1380;SDS011;684;48.342;10.096;2024-03-23T13:31:02;7.87;;;1.80;;
1380;SDS011;684;48.342;10.096;2024-03-23T13:33:29;6.73;;;2.17;;
1380;SDS011;684;48.342;10.096;2024-03-23T13:35:57;7.83;;;2.23;;
1380;SDS011;684;48.342;10.096;2024-03-23T13:38:24;6.60;;;2.40;;
1380;SDS011;684;48.342;10.096;2024-03-23T13:40:51;6.97;;;2.10;;
1380;SDS011;684;48.342;10.096;2024-03-23T13:43:20;6.00;;;2.27;;
1380;SDS011;684;48.342;10.096;2024-03-23T13:45:46;8.77;;;2.77;;
1380;SDS011;684;48.342;10.096;2024-03-23T13:48:14;8.10;;;2.23;;
1380;SDS011;684;48.342;10.096;2024-03-23T13:50:40;7.83;;;3.00;;
1380;SDS011;684;48.342;10.096;2024-03-23T13:53:07;5.80;;;2.37;;
1380;SDS011;684;48.342;10.096;2024-03-23T13:55:33;8.60;;;2.27;;
1380;SDS011;684;48.342;10.096;2024-03-23T13:58:00;7.53;;;2.87;;
1380;SDS011;684;48.342;10.096;2024-03-23T14:00:28;5.83;;;2.40;;
1380;SDS011;684;48.342;10.096;2024-03-23T14:02:54;9.37;;;1.90;;
1380;SDS011;684;48.342;10.096;2024-03-23T14:05:20;10.10;;;3.40;;
1380;SDS011;684;48.342;10.096;2024-03-23T14:07:47;6.40;;;2.10;;
1380;SDS011;684;48.342;10.096;2024-03-23T14:10:14;7.50;;;2.53;;
1380;SDS011;684;48.342;10.096;2024-03-23T14:12:41;5.40;;;2.27;;
1380;SDS011;684;48.342;10.096;2024-03-23T14:15:07;5.80;;;2.47;;
1380;SDS011;684;48.342;10.096;2024-03-23T14:17:35;9.80;;;2.50;;
1380;SDS011;684;48.342;10.096;2024-03-23T14:20:01;7.23;;;1.93;;
1380;SDS011;684;48.342;10.096;2024-03-23T14:22:30;7.90;;;2.43;;
1380;SDS011;684;48.342;10.096;2024-03-23T14:24:56;8.87;;;2.20;;
1380;SDS011;684;48.342;10.096;2024-03-23T14:27:23;7.33;;;2.20;;
1380;SDS011;684;48.342;10.096;2024-03-23T14:29:49;5.53;;;1.70;;
1380;SDS011;684;48.342;10.096;2024-03-23T14:32:17;6.20;;;2.63;;
1380;SDS011;684;48.342;10.096;2024-03-23T14:34:45;8.53;;;1.90;;
1380;SDS011;684;48.342;10.096;2024-03-23T14:37:11;7.90;;;2.50;;
1380;SDS011;684;48.342;10.096;2024-03-23T14:39:37;10.23;;;1.77;;
1380;SDS011;684;48.342;10.096;2024-03-23T14:42:06;5.53;;;2.33;;
1380;SDS011;684;48.342;10.096;2024-03-23T14:44:34;6.40;;;1.87;;
1380;SDS011;684;48.342;10.096;2024-03-23T14:47:00;11.77;;;2.10;;
1380;SDS011;684;48.342;10.096;2024-03-23T14:49:27;4.70;;;1.73;;
1380;SDS011;684;48.342;10.096;2024-03-23T14:51:54;7.40;;;1.97;;
1380;SDS011;684;48.342;10.096;2024-03-23T14:54:20;8.27;;;2.13;;
1380;SDS011;684;48.342;10.096;2024-03-23T14:56:46;6.13;;;2.27;;
1380;SDS011;684;48.342;10.096;2024-03-23T14:59:13;6.00;;;1.60;;
1380;SDS011;684;48.342;10.096;2024-03-23T15:01:39;7.80;;;1.77;;
1380;SDS011;684;48.342;10.096;2024-03-23T15:04:06;8.77;;;2.07;;
1380;SDS011;684;48.342;10.096;2024-03-23T15:06:33;5.90;;;1.63;;
1380;SDS011;684;48.342;10.096;2024-03-23T15:09:01;6.60;;;1.87;;
1380;SDS011;684;48.342;10.096;2024-03-23T15:11:32;6.10;;;1.40;;
1380;SDS011;684;48.342;10.096;2024-03-23T15:13:59;6.23;;;2.07;;
1380;SDS011;684;48.342;10.096;2024-03-23T15:16:24;5.50;;;1.70;;
1380;SDS011;684;48.342;10.096;2024-03-23T15:18:51;8.57;;;1.73;;
1380;SDS011;684;48.342;10.096;2024-03-23T15:21:17;5.90;;;1.37;;
1380;SDS011;684;48.342;10.096;2024-03-23T15:23:46;7.97;;;1.83;;
1380;SDS011;684;48.342;10.096;2024-03-23T15:26:13;5.10;;;1.40;;
1380;SDS011;684;48.342;10.096;2024-03-23T15:28:41;6.30;;;1.87;;
1380;SDS011;684;48.342;10.096;2024-03-23T15:31:09;6.20;;;1.73;;
1380;SDS011;684;48.342;10.096;2024-03-23T15:33:36;4.70;;;1.43;;
1380;SDS011;684;48.342;10.096;2024-03-23T15:36:02;8.70;;;2.07;;
1380;SDS011;684;48.342;10.096;2024-03-23T15:38:31;6.30;;;2.30;;
1380;SDS011;684;48.342;10.096;2024-03-23T15:40:57;6.03;;;1.30;;
1380;SDS011;684;48.342;10.096;2024-03-23T15:43:26;15.67;;;1.90;;
1380;SDS011;684;48.342;10.096;2024-03-23T15:45:54;8.30;;;2.40;;
1380;SDS011;684;48.342;10.096;2024-03-23T15:48:21;6.27;;;1.90;;
1380;SDS011;684;48.342;10.096;2024-03-23T15:50:51;7.30;;;1.33;;
1380;SDS011;684;48.342;10.096;2024-03-23T15:53:18;4.43;;;1.60;;
1380;SDS011;684;48.342;10.096;2024-03-23T15:55:44;5.07;;;1.60;;
1380;SDS011;684;48.342;10.096;2024-03-23T15:58:11;5.60;;;1.23;;
1380;SDS011;684;48.342;10.096;2024-03-23T16:00:38;4.43;;;1.17;;
1380;SDS011;684;48.342;10.096;2024-03-23T16:03:06;4.67;;;1.20;;
1380;SDS011;684;48.342;10.096;2024-03-23T16:05:32;4.90;;;1.20;;
1380;SDS011;684;48.342;10.096;2024-03-23T16:07:59;4.07;;;1.10;;
1380;SDS011;684;48.342;10.096;2024-03-23T16:10:25;5.20;;;1.47;;
1380;SDS011;684;48.342;10.096;2024-03-23T16:12:51;3.83;;;0.87;;